createdAt,value
2019-02-12T00:00:51.232Z,13.62
2019-02-12T00:01:26.811Z,15.25
2019-02-12T00:02:07.738Z,16.97
2019-02-12T00:02:44.230Z,15.58
2019-02-12T00:03:19.819Z,14.93
2019-02-12T00:03:55.451Z,18.17
2019-02-12T00:04:30.949Z,16.97
2019-02-12T00:05:08.254Z,13.68
2019-02-12T00:05:44.634Z,9.30
2019-02-12T00:06:20.351Z,16.67
2019-02-12T00:06:56.091Z,12.70
2019-02-12T00:07:31.670Z,10.30
2019-02-12T00:08:07.469Z,7.42
2019-02-12T00:08:43.016Z,12.45
2019-02-12T00:09:18.712Z,8.50
2019-02-12T00:09:54.373Z,10.55
2019-02-12T00:10:30.385Z,10.90
2019-02-12T00:11:06.138Z,11.35
2019-02-12T00:11:41.968Z,11.30
2019-02-12T00:12:17.575Z,14.15
2019-02-12T00:12:53.535Z,12.47
2019-02-12T00:13:29.208Z,12.45
2019-02-12T00:14:04.907Z,10.40
2019-02-12T00:14:40.635Z,15.48
2019-02-12T00:15:16.279Z,8.60
2019-02-12T00:15:51.988Z,11.05
2019-02-12T00:16:27.609Z,12.33
2019-02-12T00:17:03.115Z,14.58
2019-02-12T00:17:38.952Z,13.05
2019-02-12T00:18:14.753Z,10.48
2019-02-12T00:18:50.292Z,13.03
2019-02-12T00:19:25.891Z,14.85
2019-02-12T00:20:01.381Z,12.85
2019-02-12T00:20:37.531Z,12.18
2019-02-12T00:21:13.058Z,12.37
2019-02-12T00:21:48.877Z,12.30
2019-02-12T00:22:42.212Z,15.28
2019-02-12T00:23:17.899Z,13.43
2019-02-12T00:23:53.750Z,14.63
2019-02-12T00:24:29.373Z,9.30
2019-02-12T00:25:04.978Z,10.38
2019-02-12T00:25:40.669Z,13.15
2019-02-12T00:26:16.429Z,10.40
2019-02-12T00:26:51.950Z,13.58
2019-02-12T00:27:27.649Z,12.50
2019-02-12T00:28:03.167Z,12.93
2019-02-12T00:28:38.687Z,11.57
2019-02-12T00:29:14.576Z,11.12
2019-02-12T00:29:50.130Z,13.53
2019-02-12T00:30:25.894Z,15.28
2019-02-12T00:31:01.572Z,12.05
2019-02-12T00:31:37.294Z,12.98
2019-02-12T00:32:12.932Z,12.80
2019-02-12T00:32:48.570Z,13.83
2019-02-12T00:33:24.229Z,11.65
2019-02-12T00:33:59.929Z,12.15
2019-02-12T00:34:35.809Z,11.93
2019-02-12T00:35:11.249Z,8.48
2019-02-12T00:35:46.789Z,14.98
2019-02-12T00:36:22.437Z,12.88
2019-02-12T00:36:58.049Z,13.95
2019-02-12T00:37:33.669Z,15.08
2019-02-12T00:38:09.290Z,15.25
2019-02-12T00:38:44.911Z,16.80
2019-02-12T00:39:20.428Z,14.58
2019-02-12T00:39:56.168Z,13.60
2019-02-12T00:40:31.842Z,13.55
2019-02-12T00:41:07.672Z,13.60
2019-02-12T00:41:43.412Z,13.20
2019-02-12T00:42:19.030Z,13.85
2019-02-12T00:42:54.790Z,13.43
2019-02-12T00:43:30.409Z,12.18
2019-02-12T00:44:05.930Z,11.18
2019-02-12T00:44:41.697Z,12.00
2019-02-12T00:45:17.291Z,13.22
2019-02-12T00:45:52.949Z,16.27
2019-02-12T00:46:28.631Z,16.42
2019-02-12T00:47:04.089Z,13.08
2019-02-12T00:47:39.819Z,14.00
2019-02-12T00:48:15.471Z,14.35
2019-02-12T00:48:50.990Z,15.85
2019-02-12T00:49:26.631Z,14.10
2019-02-12T00:50:02.387Z,10.63
2019-02-12T00:50:38.147Z,18.17
2019-02-12T00:51:17.790Z,17.80
2019-02-12T00:51:51.287Z,16.95
2019-02-12T00:52:26.991Z,19.87
2019-02-12T00:53:02.667Z,16.62
2019-02-12T00:53:38.177Z,16.10
2019-02-12T00:54:13.849Z,18.27
2019-02-12T00:54:49.550Z,15.65
2019-02-12T00:55:25.174Z,19.80
2019-02-12T00:56:00.693Z,13.80
2019-02-12T00:56:36.254Z,12.73
2019-02-12T00:57:11.736Z,15.88
2019-02-12T00:57:47.489Z,14.90
2019-02-12T00:58:23.087Z,17.37
2019-02-12T00:58:58.790Z,14.65
2019-02-12T00:59:34.470Z,10.88
2019-02-12T01:00:11.778Z,16.95
2019-02-12T01:00:47.409Z,11.97
2019-02-12T01:01:23.030Z,15.30
2019-02-12T01:01:58.665Z,11.40
2019-02-12T01:02:34.251Z,14.35
2019-02-12T01:03:09.969Z,10.75
2019-02-12T01:04:08.034Z,19.02
2019-02-12T01:04:44.131Z,16.62
2019-02-12T01:05:21.588Z,18.30
2019-02-12T01:05:57.400Z,14.13
2019-02-12T01:06:33.177Z,18.23
2019-02-12T01:07:08.853Z,17.75
2019-02-12T01:07:44.473Z,18.05
2019-02-12T01:08:20.092Z,14.15
2019-02-12T01:08:55.814Z,17.42
2019-02-12T01:09:31.450Z,14.30
2019-02-12T01:10:08.007Z,17.85
2019-02-12T01:10:43.527Z,22.25
2019-02-12T01:11:21.788Z,15.13
2019-02-12T01:11:57.555Z,13.25
2019-02-12T01:12:33.327Z,16.45
2019-02-12T01:13:09.209Z,17.40
2019-02-12T01:13:44.888Z,11.78
2019-02-12T01:14:20.651Z,13.65
2019-02-12T01:14:56.373Z,14.28
2019-02-12T01:15:32.050Z,14.23
2019-02-12T01:16:07.699Z,18.52
2019-02-12T01:16:43.389Z,15.25
2019-02-12T01:17:19.198Z,17.23
2019-02-12T01:17:54.888Z,19.65
2019-02-12T01:18:30.475Z,16.25
2019-02-12T01:19:06.752Z,19.45
2019-02-12T01:19:42.241Z,12.82
2019-02-12T01:20:18.120Z,14.90
2019-02-12T01:20:53.972Z,11.93
2019-02-12T01:21:29.531Z,17.62
2019-02-12T01:22:05.510Z,15.23
2019-02-12T01:22:41.415Z,14.45
2019-02-12T01:23:16.973Z,15.40
2019-02-12T01:23:52.811Z,16.50
2019-02-12T01:24:28.369Z,8.50
2019-02-12T01:25:03.887Z,18.35
2019-02-12T01:25:39.736Z,19.17
2019-02-12T01:26:15.307Z,15.75
2019-02-12T01:26:50.907Z,10.40
2019-02-12T01:27:26.555Z,16.95
2019-02-12T01:28:02.210Z,15.43
2019-02-12T01:28:37.812Z,17.57
2019-02-12T01:29:13.498Z,12.85
2019-02-12T01:29:49.058Z,19.77
2019-02-12T01:30:24.707Z,17.05
2019-02-12T01:31:00.451Z,14.85
2019-02-12T01:31:36.135Z,17.12
2019-02-12T01:32:11.888Z,22.70
2019-02-12T01:32:47.687Z,16.75
2019-02-12T01:33:23.270Z,9.85
2019-02-12T01:33:58.988Z,14.78
2019-02-12T01:34:34.514Z,17.20
2019-02-12T01:35:10.228Z,14.10
2019-02-12T01:35:45.734Z,17.98
2019-02-12T01:36:21.235Z,9.08
2019-02-12T01:36:56.775Z,15.20
2019-02-12T01:37:32.427Z,16.85
2019-02-12T01:38:07.930Z,15.98
2019-02-12T01:38:43.512Z,15.38
2019-02-12T01:39:18.992Z,14.98
2019-02-12T01:39:54.710Z,13.30
2019-02-12T01:40:30.249Z,11.93
2019-02-12T01:41:05.970Z,16.23
2019-02-12T01:41:41.518Z,17.80
2019-02-12T01:42:17.050Z,17.98
2019-02-12T01:42:52.890Z,9.63
2019-02-12T01:43:28.451Z,13.05
2019-02-12T01:44:03.969Z,14.85
2019-02-12T01:44:39.453Z,14.68
2019-02-12T01:45:15.509Z,16.50
2019-02-12T01:45:51.216Z,17.17
2019-02-12T01:46:26.768Z,12.93
2019-02-12T01:47:02.308Z,16.95
2019-02-12T01:47:38.050Z,12.70
2019-02-12T01:48:13.652Z,10.60
2019-02-12T01:48:49.280Z,14.93
2019-02-12T01:49:24.794Z,16.23
2019-02-12T01:50:00.643Z,18.50
2019-02-12T01:50:36.368Z,17.67
2019-02-12T01:51:12.128Z,14.53
2019-02-12T01:51:48.288Z,15.05
2019-02-12T01:52:23.848Z,12.68
2019-02-12T01:52:59.428Z,10.32
2019-02-12T01:53:36.148Z,10.63
2019-02-12T01:54:11.972Z,12.60
2019-02-12T01:54:48.008Z,14.33
2019-02-12T01:55:23.622Z,11.55
2019-02-12T01:55:59.387Z,16.10
2019-02-12T01:56:34.907Z,13.53
2019-02-12T01:57:10.512Z,9.90
2019-02-12T01:57:46.093Z,10.30
2019-02-12T01:58:21.572Z,9.35
2019-02-12T01:58:57.418Z,13.18
2019-02-12T01:59:32.994Z,12.18
2019-02-12T02:00:10.737Z,14.03
2019-02-12T02:00:46.435Z,11.05
2019-02-12T02:01:22.154Z,11.53
2019-02-12T02:01:57.653Z,7.85
2019-02-12T02:02:33.294Z,11.25
2019-02-12T02:03:08.857Z,10.05
2019-02-12T02:03:44.776Z,13.95
2019-02-12T02:04:20.488Z,10.05
2019-02-12T02:04:56.112Z,12.65
2019-02-12T02:05:31.771Z,6.37
2019-02-12T02:06:07.278Z,7.15
2019-02-12T02:06:43.055Z,10.63
2019-02-12T02:07:19.767Z,10.80
2019-02-12T02:07:59.033Z,9.13
2019-02-12T02:08:34.827Z,7.80
2019-02-12T02:09:10.707Z,10.82
2019-02-12T02:09:46.949Z,8.78
2019-02-12T02:10:22.597Z,8.43
2019-02-12T02:10:58.372Z,6.35
2019-02-12T02:11:33.788Z,8.65
2019-02-12T02:12:09.373Z,11.43
2019-02-12T02:12:44.971Z,8.75
2019-02-12T02:13:20.553Z,9.20
2019-02-12T02:13:56.187Z,8.80
2019-02-12T02:14:32.228Z,4.10
2019-02-12T02:15:09.248Z,8.35
2019-02-12T02:15:44.828Z,13.83
2019-02-12T02:16:20.428Z,15.03
2019-02-12T02:16:56.191Z,10.98
2019-02-12T02:17:31.709Z,8.25
2019-02-12T02:18:25.250Z,12.00
2019-02-12T02:19:00.714Z,4.47
2019-02-12T02:19:36.432Z,7.50
2019-02-12T02:20:13.789Z,4.95
2019-02-12T02:20:49.368Z,6.25
2019-02-12T02:21:24.991Z,8.38
2019-02-12T02:22:00.609Z,9.03
2019-02-12T02:22:36.167Z,6.33
2019-02-12T02:23:11.728Z,8.33
2019-02-12T02:23:47.388Z,6.55
2019-02-12T02:24:22.876Z,5.95
2019-02-12T02:24:58.628Z,11.25
2019-02-12T02:25:34.176Z,6.00
2019-02-12T02:26:09.836Z,10.80
2019-02-12T02:26:45.469Z,8.33
2019-02-12T02:27:21.068Z,7.12
2019-02-12T02:27:57.288Z,5.80
2019-02-12T02:28:32.912Z,6.10
2019-02-12T02:29:08.695Z,3.62
2019-02-12T02:29:44.670Z,6.10
2019-02-12T02:30:20.229Z,8.18
2019-02-12T02:30:55.909Z,5.47
2019-02-12T02:31:31.576Z,4.12
2019-02-12T02:32:07.335Z,5.67
2019-02-12T02:32:42.875Z,9.53
2019-02-12T02:33:18.667Z,8.50
2019-02-12T02:33:54.380Z,6.40
2019-02-12T02:34:30.173Z,4.47
2019-02-12T02:35:05.999Z,5.80
2019-02-12T02:35:41.570Z,6.95
2019-02-12T02:36:17.869Z,3.60
2019-02-12T02:36:53.431Z,6.33
2019-02-12T02:37:29.112Z,6.40
2019-02-12T02:38:04.742Z,5.12
2019-02-12T02:38:40.462Z,9.18
2019-02-12T02:39:16.179Z,8.50
2019-02-12T02:39:51.881Z,9.70
2019-02-12T02:40:28.113Z,7.58
2019-02-12T02:41:03.621Z,4.25
2019-02-12T02:41:39.332Z,6.05
2019-02-12T02:42:15.119Z,8.43
2019-02-12T02:42:50.817Z,4.35
2019-02-12T02:43:27.471Z,5.50
2019-02-12T02:44:03.192Z,5.20
2019-02-12T02:44:38.788Z,4.90
2019-02-12T02:45:14.710Z,4.17
2019-02-12T02:45:50.368Z,5.83
2019-02-12T02:46:25.893Z,8.30
2019-02-12T02:47:01.549Z,5.85
2019-02-12T02:47:37.268Z,5.67
2019-02-12T02:48:12.929Z,7.60
2019-02-12T02:48:48.513Z,3.85
2019-02-12T02:49:24.228Z,4.62
2019-02-12T02:49:59.749Z,4.28
2019-02-12T02:50:35.359Z,4.40
2019-02-12T02:51:11.163Z,4.75
2019-02-12T02:51:53.754Z,5.10
2019-02-12T02:52:24.014Z,11.12
2019-02-12T02:52:59.740Z,3.33
2019-02-12T02:53:35.433Z,3.65
2019-02-12T02:54:11.216Z,4.90
2019-02-12T02:54:47.250Z,7.03
2019-02-12T02:55:22.811Z,5.03
2019-02-12T02:55:58.432Z,5.50
2019-02-12T02:56:34.073Z,6.35
2019-02-12T02:57:09.572Z,5.60
2019-02-12T02:57:45.209Z,3.67
2019-02-12T02:58:20.751Z,7.92
2019-02-12T02:58:56.510Z,5.00
2019-02-12T02:59:32.289Z,5.28
2019-02-12T03:00:09.011Z,5.60
2019-02-12T03:00:44.700Z,8.23
2019-02-12T03:01:20.328Z,4.12
2019-02-12T03:01:56.037Z,3.83
2019-02-12T03:02:31.597Z,6.55
2019-02-12T03:03:07.261Z,3.92
2019-02-12T03:03:42.753Z,4.12
2019-02-12T03:04:18.509Z,6.25
2019-02-12T03:04:54.078Z,8.88
2019-02-12T03:05:29.574Z,4.78
2019-02-12T03:06:05.334Z,4.72
2019-02-12T03:06:40.851Z,6.22
2019-02-12T03:07:16.513Z,3.52
2019-02-12T03:07:51.990Z,4.33
2019-02-12T03:08:27.689Z,7.60
2019-02-12T03:09:03.770Z,4.97
2019-02-12T03:09:39.609Z,6.00
2019-02-12T03:10:15.350Z,8.60
2019-02-12T03:10:52.345Z,4.53
2019-02-12T03:11:28.430Z,3.42
2019-02-12T03:12:04.389Z,3.22
2019-02-12T03:12:40.293Z,8.15
2019-02-12T03:13:16.049Z,4.92
2019-02-12T03:13:51.990Z,5.00
2019-02-12T03:14:27.744Z,5.72
2019-02-12T03:15:03.550Z,7.75
2019-02-12T03:15:39.467Z,6.00
2019-02-12T03:16:15.780Z,5.87
2019-02-12T03:16:51.525Z,8.08
2019-02-12T03:17:27.220Z,5.33
2019-02-12T03:18:03.004Z,7.40
2019-02-12T03:18:38.859Z,5.40
2019-02-12T03:19:14.680Z,6.67
2019-02-12T03:19:50.599Z,4.03
2019-02-12T03:20:26.388Z,4.72
2019-02-12T03:21:02.207Z,4.60
2019-02-12T03:21:37.968Z,5.50
2019-02-12T03:22:13.733Z,5.78
2019-02-12T03:22:49.667Z,5.62
2019-02-12T03:23:25.382Z,4.70
2019-02-12T03:24:01.151Z,3.75
2019-02-12T03:24:37.086Z,6.25
2019-02-12T03:25:12.984Z,5.28
2019-02-12T03:25:48.998Z,3.17
2019-02-12T03:26:24.741Z,5.00
2019-02-12T03:27:00.498Z,3.67
2019-02-12T03:27:36.435Z,6.80
2019-02-12T03:28:12.280Z,6.05
2019-02-12T03:28:47.987Z,5.58
2019-02-12T03:29:23.809Z,8.10
2019-02-12T03:29:59.667Z,5.17
2019-02-12T03:30:35.533Z,4.25
2019-02-12T03:31:11.525Z,3.37
2019-02-12T03:31:47.427Z,3.17
2019-02-12T03:32:23.245Z,4.55
2019-02-12T03:32:58.987Z,3.55
2019-02-12T03:33:34.843Z,4.97
2019-02-12T03:34:10.654Z,4.35
2019-02-12T03:34:46.682Z,4.65
2019-02-12T03:35:22.502Z,7.00
2019-02-12T03:35:58.382Z,5.70
2019-02-12T03:36:34.223Z,5.53
2019-02-12T03:37:10.163Z,8.63
2019-02-12T03:37:46.111Z,3.75
2019-02-12T03:38:21.859Z,2.95
2019-02-12T03:38:57.633Z,7.60
2019-02-12T03:39:33.349Z,5.37
2019-02-12T03:40:10.431Z,5.42
2019-02-12T03:40:46.122Z,5.37
2019-02-12T03:41:21.859Z,5.53
2019-02-12T03:41:57.738Z,9.28
2019-02-12T03:42:33.610Z,3.47
2019-02-12T03:43:09.290Z,4.95
2019-02-12T03:43:45.120Z,7.47
2019-02-12T03:44:21.030Z,7.25
2019-02-12T03:44:56.941Z,6.50
2019-02-12T03:45:32.660Z,7.10
2019-02-12T03:46:08.563Z,4.70
2019-02-12T03:46:44.465Z,5.37
2019-02-12T03:47:20.308Z,2.40
2019-02-12T03:47:56.021Z,5.47
2019-02-12T03:48:31.745Z,6.20
2019-02-12T03:49:07.510Z,4.78
2019-02-12T03:49:43.322Z,2.75
2019-02-12T03:50:19.031Z,4.10
2019-02-12T03:50:54.811Z,7.33
2019-02-12T03:51:30.520Z,7.22
2019-02-12T03:52:12.633Z,7.50
2019-02-12T03:52:44.470Z,5.92
2019-02-12T03:53:20.049Z,5.53
2019-02-12T03:53:55.740Z,7.62
2019-02-12T03:54:31.840Z,4.25
2019-02-12T03:55:08.707Z,6.97
2019-02-12T03:55:44.462Z,7.62
2019-02-12T03:56:21.169Z,5.17
2019-02-12T03:56:57.376Z,3.58
2019-02-12T03:57:33.321Z,4.47
2019-02-12T03:58:09.262Z,6.97
2019-02-12T03:58:44.882Z,4.85
2019-02-12T03:59:20.642Z,3.10
2019-02-12T03:59:56.503Z,5.20
2019-02-12T04:00:32.381Z,8.40
2019-02-12T04:01:08.360Z,4.85
2019-02-12T04:01:44.242Z,4.78
2019-02-12T04:02:20.465Z,8.55
2019-02-12T04:03:04.008Z,5.50
2019-02-12T04:03:40.003Z,2.47
2019-02-12T04:04:15.863Z,5.40
2019-02-12T04:04:51.840Z,3.20
2019-02-12T04:05:27.528Z,4.55
2019-02-12T04:06:03.281Z,5.22
2019-02-12T04:06:39.140Z,2.30
2019-02-12T04:07:14.880Z,3.87
2019-02-12T04:07:51.008Z,4.10
2019-02-12T04:08:27.164Z,4.03
2019-02-12T04:09:02.882Z,4.33
2019-02-12T04:09:39.022Z,5.20
2019-02-12T04:10:14.656Z,6.22
2019-02-12T04:10:50.615Z,3.58
2019-02-12T04:11:26.421Z,2.70
2019-02-12T04:12:02.188Z,3.62
2019-02-12T04:12:37.935Z,7.72
2019-02-12T04:13:13.770Z,5.22
2019-02-12T04:13:49.562Z,5.85
2019-02-12T04:14:25.363Z,5.70
2019-02-12T04:15:01.217Z,6.00
2019-02-12T04:15:37.152Z,12.70
2019-02-12T04:16:12.831Z,3.00
2019-02-12T04:16:48.710Z,3.27
2019-02-12T04:17:24.548Z,3.02
2019-02-12T04:18:00.679Z,5.75
2019-02-12T04:18:36.520Z,2.33
2019-02-12T04:19:12.340Z,3.87
2019-02-12T04:19:48.100Z,6.35
2019-02-12T04:20:23.868Z,3.42
2019-02-12T04:20:59.702Z,2.12
2019-02-12T04:21:35.585Z,1.47
2019-02-12T04:22:11.694Z,3.72
2019-02-12T04:22:49.682Z,5.55
2019-02-12T04:23:25.501Z,7.12
2019-02-12T04:24:01.361Z,5.50
2019-02-12T04:24:37.042Z,5.05
2019-02-12T04:25:12.914Z,5.30
2019-02-12T04:25:48.594Z,11.43
2019-02-12T04:26:24.327Z,5.85
2019-02-12T04:27:00.034Z,4.90
2019-02-12T04:27:35.859Z,3.45
2019-02-12T04:28:11.655Z,4.55
2019-02-12T04:28:47.394Z,3.87
2019-02-12T04:29:23.140Z,5.30
2019-02-12T04:29:59.252Z,4.12
2019-02-12T04:30:34.981Z,5.78
2019-02-12T04:31:10.719Z,4.50
2019-02-12T04:31:46.539Z,4.97
2019-02-12T04:32:22.412Z,4.70
2019-02-12T04:32:58.160Z,3.47
2019-02-12T04:33:34.395Z,5.60
2019-02-12T04:34:10.102Z,4.15
2019-02-12T04:34:46.072Z,5.20
2019-02-12T04:35:21.780Z,5.28
2019-02-12T04:35:57.588Z,3.22
2019-02-12T04:36:33.391Z,3.65
2019-02-12T04:37:09.670Z,3.08
2019-02-12T04:37:45.412Z,2.70
2019-02-12T04:38:21.122Z,5.22
2019-02-12T04:38:56.866Z,6.00
2019-02-12T04:39:32.861Z,4.92
2019-02-12T04:40:09.544Z,8.35
2019-02-12T04:40:45.336Z,5.58
2019-02-12T04:41:20.957Z,6.45
2019-02-12T04:41:56.896Z,5.00
2019-02-12T04:42:32.673Z,3.42
2019-02-12T04:43:08.814Z,4.80
2019-02-12T04:43:44.828Z,4.95
2019-02-12T04:44:20.623Z,4.60
2019-02-12T04:44:56.603Z,6.67
2019-02-12T04:45:32.268Z,7.30
2019-02-12T04:46:07.936Z,6.05
2019-02-12T04:46:43.891Z,7.42
2019-02-12T04:47:20.182Z,7.15
2019-02-12T04:47:56.021Z,6.50
2019-02-12T04:48:31.932Z,7.15
2019-02-12T04:49:07.756Z,7.05
2019-02-12T04:49:43.629Z,7.90
2019-02-12T04:50:19.374Z,5.83
2019-02-12T04:50:55.232Z,7.75
2019-02-12T04:51:30.930Z,7.45
2019-02-12T04:52:06.966Z,6.65
2019-02-12T04:52:42.881Z,5.42
2019-02-12T04:53:18.942Z,6.60
2019-02-12T04:53:54.721Z,7.28
2019-02-12T04:54:30.586Z,6.15
2019-02-12T04:55:07.401Z,7.42
2019-02-12T04:55:43.207Z,4.62
2019-02-12T04:56:18.916Z,4.00
2019-02-12T04:56:54.721Z,4.12
2019-02-12T04:57:30.627Z,5.58
2019-02-12T04:58:06.466Z,7.17
2019-02-12T04:58:42.711Z,4.90
2019-02-12T04:59:18.789Z,6.25
2019-02-12T04:59:54.747Z,5.62
2019-02-12T05:00:31.268Z,3.42
2019-02-12T05:01:07.878Z,6.25
2019-02-12T05:01:44.096Z,4.70
2019-02-12T05:02:20.418Z,4.72
2019-02-12T05:02:56.766Z,11.10
2019-02-12T05:03:32.879Z,4.22
2019-02-12T05:04:08.737Z,4.90
2019-02-12T05:04:44.699Z,7.42
2019-02-12T05:05:20.454Z,5.17
2019-02-12T05:05:56.351Z,3.52
2019-02-12T05:06:32.166Z,8.38
2019-02-12T05:07:07.974Z,4.08
2019-02-12T05:07:44.176Z,8.38
2019-02-12T05:08:19.976Z,7.15
2019-02-12T05:09:21.155Z,5.35
2019-02-12T05:09:57.240Z,5.70
2019-02-12T05:10:35.502Z,7.28
2019-02-12T05:11:11.599Z,6.70
2019-02-12T05:11:56.183Z,3.45
2019-02-12T05:12:32.436Z,6.47
2019-02-12T05:13:08.579Z,8.95
2019-02-12T05:13:44.503Z,6.03
2019-02-12T05:14:20.277Z,10.32
2019-02-12T05:14:56.430Z,8.03
2019-02-12T05:15:32.314Z,8.20
2019-02-12T05:16:08.270Z,5.67
2019-02-12T05:16:44.303Z,6.28
2019-02-12T05:17:20.463Z,5.25
2019-02-12T05:17:56.404Z,6.00
2019-02-12T05:18:32.122Z,7.58
2019-02-12T05:19:07.862Z,3.92
2019-02-12T05:19:43.867Z,7.55
2019-02-12T05:20:20.051Z,8.15
2019-02-12T05:20:55.773Z,6.67
2019-02-12T05:21:31.631Z,7.15
2019-02-12T05:22:07.584Z,6.08
2019-02-12T05:22:43.995Z,6.72
2019-02-12T05:23:20.087Z,9.98
2019-02-12T05:23:55.947Z,5.60
2019-02-12T05:24:31.805Z,6.55
2019-02-12T05:25:07.807Z,6.47
2019-02-12T05:25:43.663Z,4.47
2019-02-12T05:26:19.593Z,4.90
2019-02-12T05:26:55.392Z,6.85
2019-02-12T05:27:31.156Z,7.90
2019-02-12T05:28:06.973Z,4.78
2019-02-12T05:28:43.355Z,4.90
2019-02-12T05:29:19.353Z,6.53
2019-02-12T05:29:55.443Z,8.50
2019-02-12T05:30:31.387Z,4.37
2019-02-12T05:31:07.540Z,7.78
2019-02-12T05:31:43.193Z,7.62
2019-02-12T05:32:19.113Z,7.33
2019-02-12T05:32:55.024Z,6.30
2019-02-12T05:33:30.683Z,6.03
2019-02-12T05:34:06.764Z,9.43
2019-02-12T05:34:42.523Z,7.33
2019-02-12T05:35:18.272Z,6.78
2019-02-12T05:35:54.452Z,6.42
2019-02-12T05:36:30.232Z,10.75
2019-02-12T05:37:05.986Z,8.18
2019-02-12T05:37:41.721Z,5.33
2019-02-12T05:38:17.568Z,7.87
2019-02-12T05:38:53.353Z,11.03
2019-02-12T05:39:29.109Z,7.12
2019-02-12T05:40:05.078Z,10.25
2019-02-12T05:40:40.848Z,8.25
2019-02-12T05:41:16.588Z,11.53
2019-02-12T05:41:52.481Z,9.45
2019-02-12T05:42:28.403Z,10.75
2019-02-12T05:43:04.141Z,9.25
2019-02-12T05:43:40.251Z,7.60
2019-02-12T05:44:16.128Z,10.32
2019-02-12T05:44:51.952Z,7.65
2019-02-12T05:45:27.872Z,11.33
2019-02-12T05:46:04.388Z,9.18
2019-02-12T05:46:40.164Z,11.08
2019-02-12T05:47:15.807Z,9.18
2019-02-12T05:47:51.662Z,9.93
2019-02-12T05:48:27.847Z,11.00
2019-02-12T05:49:03.709Z,9.93
2019-02-12T05:49:39.597Z,15.95
2019-02-12T05:50:16.058Z,6.72
2019-02-12T05:50:53.460Z,10.40
2019-02-12T05:51:29.701Z,13.53
2019-02-12T05:52:05.744Z,8.33
2019-02-12T05:52:53.849Z,8.68
2019-02-12T05:53:22.164Z,8.15
2019-02-12T05:53:58.008Z,9.13
2019-02-12T05:54:33.645Z,11.65
2019-02-12T05:55:09.628Z,10.88
2019-02-12T05:55:45.410Z,9.75
2019-02-12T05:56:21.105Z,9.98
2019-02-12T05:56:56.869Z,9.53
2019-02-12T05:57:32.790Z,9.78
2019-02-12T05:58:08.942Z,16.23
2019-02-12T05:58:44.800Z,10.65
2019-02-12T05:59:20.569Z,11.33
2019-02-12T05:59:56.462Z,11.65
2019-02-12T06:00:33.665Z,14.53
2019-02-12T06:01:09.465Z,9.00
2019-02-12T06:01:45.285Z,11.45
2019-02-12T06:02:20.991Z,12.18
2019-02-12T06:02:56.836Z,8.83
2019-02-12T06:03:32.723Z,9.80
2019-02-12T06:04:08.743Z,10.58
2019-02-12T06:04:44.827Z,10.03
2019-02-12T06:05:30.367Z,11.43
2019-02-12T06:06:06.765Z,10.53
2019-02-12T06:06:42.503Z,14.28
2019-02-12T06:07:18.562Z,9.03
2019-02-12T06:07:54.781Z,13.60
2019-02-12T06:08:30.714Z,10.45
2019-02-12T06:09:06.849Z,12.75
2019-02-12T06:09:42.673Z,11.95
2019-02-12T06:10:18.605Z,10.43
2019-02-12T06:10:54.509Z,9.68
2019-02-12T06:11:30.383Z,12.20
2019-02-12T06:12:06.321Z,11.83
2019-02-12T06:12:42.189Z,8.80
2019-02-12T06:13:18.129Z,11.55
2019-02-12T06:13:54.229Z,10.15
2019-02-12T06:14:30.159Z,9.95
2019-02-12T06:15:06.199Z,14.20
2019-02-12T06:15:41.860Z,10.93
2019-02-12T06:16:17.837Z,13.93
2019-02-12T06:16:53.806Z,12.70
2019-02-12T06:17:29.660Z,11.12
2019-02-12T06:18:05.760Z,14.05
2019-02-12T06:18:41.532Z,10.13
2019-02-12T06:19:17.372Z,13.15
2019-02-12T06:19:53.172Z,10.93
2019-02-12T06:20:29.024Z,15.03
2019-02-12T06:21:04.916Z,14.68
2019-02-12T06:21:40.929Z,10.05
2019-02-12T06:22:16.827Z,10.88
2019-02-12T06:22:52.599Z,10.32
2019-02-12T06:23:28.501Z,9.55
2019-02-12T06:24:04.481Z,13.68
2019-02-12T06:24:40.216Z,11.78
2019-02-12T06:25:16.131Z,8.48
2019-02-12T06:25:52.059Z,10.90
2019-02-12T06:26:27.865Z,11.80
2019-02-12T06:27:03.622Z,10.70
2019-02-12T06:27:39.351Z,11.88
2019-02-12T06:28:15.464Z,12.00
2019-02-12T06:28:51.271Z,11.20
2019-02-12T06:29:27.005Z,17.50
2019-02-12T06:30:02.903Z,14.40
2019-02-12T06:30:39.766Z,17.32
2019-02-12T06:31:15.620Z,15.63
2019-02-12T06:31:51.344Z,10.28
2019-02-12T06:32:27.149Z,16.82
2019-02-12T06:33:07.595Z,15.32
2019-02-12T06:33:41.088Z,17.02
2019-02-12T06:34:16.848Z,14.50
2019-02-12T06:34:52.841Z,13.70
2019-02-12T06:35:28.841Z,12.65
2019-02-12T06:36:04.738Z,13.55
2019-02-12T06:36:40.490Z,12.88
2019-02-12T06:37:16.230Z,15.78
2019-02-12T06:37:52.152Z,14.55
2019-02-12T06:38:27.961Z,15.72
2019-02-12T06:39:04.997Z,15.95
2019-02-12T06:39:40.826Z,16.27
2019-02-12T06:40:16.683Z,16.42
2019-02-12T06:40:52.750Z,15.90
2019-02-12T06:41:28.550Z,12.07
2019-02-12T06:42:04.290Z,22.65
2019-02-12T06:42:40.173Z,15.55
2019-02-12T06:43:15.887Z,18.17
2019-02-12T06:43:51.631Z,20.72
2019-02-12T06:44:27.568Z,19.42
2019-02-12T06:45:03.411Z,22.75
2019-02-12T06:45:39.471Z,22.80
2019-02-12T06:46:15.206Z,19.62
2019-02-12T06:46:51.143Z,19.05
2019-02-12T06:47:26.988Z,19.77
2019-02-12T06:48:02.839Z,19.98
2019-02-12T06:48:38.779Z,23.32
2019-02-12T06:49:14.594Z,22.27
2019-02-12T06:49:50.424Z,25.20
2019-02-12T06:50:26.267Z,30.52
2019-02-12T06:51:02.043Z,64.97
2019-02-12T06:51:37.755Z,144.28
2019-02-12T06:52:13.568Z,267.10
2019-02-12T06:52:49.379Z,288.50
2019-02-12T06:53:25.106Z,160.97
2019-02-12T06:54:00.939Z,35.10
2019-02-12T06:54:36.798Z,22.35
2019-02-12T06:55:12.992Z,24.10
2019-02-12T06:55:49.007Z,20.70
2019-02-12T06:56:24.859Z,16.02
2019-02-12T06:57:01.133Z,15.08
2019-02-12T06:57:36.982Z,16.00
2019-02-12T06:58:12.802Z,18.02
2019-02-12T06:58:48.880Z,12.82
2019-02-12T06:59:25.116Z,11.60
2019-02-12T07:00:01.054Z,15.88
2019-02-12T07:00:36.735Z,16.97
2019-02-12T07:01:12.852Z,13.65
2019-02-12T07:01:48.734Z,14.85
2019-02-12T07:02:59.744Z,13.15
2019-02-12T07:03:50.847Z,20.02
2019-02-12T07:04:29.991Z,13.32
2019-02-12T07:05:05.951Z,12.40
2019-02-12T07:06:04.570Z,10.35
2019-02-12T07:07:13.549Z,10.50
2019-02-12T07:08:37.830Z,13.62
2019-02-12T07:10:02.850Z,9.90
2019-02-12T07:10:39.750Z,10.90
2019-02-12T07:11:49.772Z,12.75
2019-02-12T07:13:15.311Z,9.40
2019-02-12T07:14:05.771Z,6.28
2019-02-12T07:15:33.087Z,8.33
2019-02-12T07:16:20.688Z,9.05
2019-02-12T07:17:20.767Z,9.50
2019-02-12T07:18:08.907Z,10.48
2019-02-12T07:19:39.367Z,45.70
2019-02-12T07:20:40.408Z,19.25
2019-02-12T07:21:47.171Z,10.85
2019-02-12T07:23:03.904Z,6.53
2019-02-12T07:24:04.136Z,8.45
2019-02-12T07:25:15.266Z,8.45
2019-02-12T07:26:20.540Z,9.73
2019-02-12T07:27:22.684Z,8.40
2019-02-12T07:28:31.849Z,8.43
2019-02-12T07:29:43.317Z,5.47
2019-02-12T07:31:20.984Z,11.48
2019-02-12T07:32:26.282Z,10.43
2019-02-12T07:33:42.336Z,9.28
2019-02-12T07:35:10.514Z,8.53
2019-02-12T07:36:32.133Z,8.75
2019-02-12T07:37:48.369Z,5.58
2019-02-12T07:38:51.130Z,10.20
2019-02-12T07:39:54.029Z,7.62
2019-02-12T07:41:20.198Z,9.50
2019-02-12T07:42:43.647Z,8.45
2019-02-12T07:43:54.705Z,9.43
2019-02-12T07:45:12.493Z,9.03
2019-02-12T07:46:16.201Z,7.80
2019-02-12T07:47:48.025Z,10.90
2019-02-12T07:48:54.882Z,6.97
2019-02-12T07:49:59.000Z,11.35
2019-02-12T07:51:02.428Z,15.38
2019-02-12T07:52:06.410Z,6.78
2019-02-12T07:53:38.268Z,11.65
2019-02-12T07:54:40.589Z,7.53
2019-02-12T07:55:56.610Z,12.00
2019-02-12T07:57:14.209Z,11.05
2019-02-12T07:58:31.012Z,9.43
2019-02-12T07:59:44.699Z,14.78
2019-02-12T08:01:02.186Z,10.23
2019-02-12T08:01:58.771Z,13.08
2019-02-12T08:03:06.540Z,8.73
2019-02-12T08:04:04.281Z,10.15
2019-02-12T08:05:08.545Z,12.45
2019-02-12T08:06:05.763Z,10.10
2019-02-12T08:07:04.301Z,18.85
2019-02-12T08:08:13.222Z,13.43
2019-02-12T08:09:24.565Z,22.15
2019-02-12T08:10:43.086Z,9.50
2019-02-12T08:12:02.536Z,27.95
2019-02-12T08:13:06.744Z,11.93
2019-02-12T08:14:29.028Z,10.55
2019-02-12T08:15:38.599Z,17.85
2019-02-12T08:16:34.558Z,17.20
2019-02-12T08:17:37.172Z,14.75
2019-02-12T08:18:47.717Z,16.23
2019-02-12T08:19:53.619Z,7.95
2019-02-12T08:21:25.029Z,16.32
2019-02-12T08:22:20.269Z,11.78
2019-02-12T08:23:41.161Z,10.45
2019-02-12T08:24:52.804Z,14.25
2019-02-12T08:26:27.143Z,14.38
2019-02-12T08:27:27.525Z,10.53
2019-02-12T08:28:27.124Z,9.50
2019-02-12T08:29:38.314Z,12.33
2019-02-12T08:30:25.602Z,10.38
2019-02-12T08:31:37.369Z,8.15
2019-02-12T08:32:58.349Z,12.03
2019-02-12T08:34:20.010Z,9.38
2019-02-12T08:35:27.581Z,13.88
2019-02-12T08:36:31.161Z,11.73
2019-02-12T08:37:41.179Z,7.05
2019-02-12T08:38:53.486Z,7.83